Airfield :
LOGIN :

Register | Disclaimer

   EN    FR    IT 

 










Legend :    VFR   Marginal VFR   IFR   Intensive IFR   Very Intensive IFR
Visi :
Ceiling :
>= 8 km
>= 3000ft
5 to 8 km
1000 to 3000 ft
1500m to 5 km
500 to 1000 ft
800 to 1500m
200 to 500 ft
< 800m
< 200 ft
Symbols :   Thunderstorms  Fog  Heavy snow  Heavy precipitations  Wind > 20 kt
SIGMETs :     Misc.  Thunderstorms  Icing  Turbulence  Mountain Waves  Volcanic Ashes







- Airport Elevation : 6 ft
- IATA code : PSA


LIRP - Galileo Galilei Pisa

CURRENT METAR :
  • 212215Z 06008KT 9999 -RA SCT030 BKN040 07/04 Q1004 NOSIG

EXPIRED METARs :
  • 212145Z 06005KT 9999 -DZ SCT035 BKN050 07/02 Q1004 TEMPO RA
  • 212115Z VRB02KT 9999 -DZ SCT040 BKN060 07/02 Q1004 TEMPO RA
  • 212045Z VRB01KT 9999 SCT050 BKN070 07/02 Q1004 NOSIG
  • 212015Z 33003KT 9999 SCT050 BKN070 07/02 Q1004 NOSIG
  • 211945Z 33004KT 9999 SCT050 BKN070 07/02 Q1004 NOSIG

TAF TAF LIRP
Valid from the 21 at 18:00 until the 22 at 18:00 UTC


211700Z 2118/2218 07010KT 9999 SCT030 BKN040
PROB40
TEMPO 2118/2218 07015G30KT
TEMPO 2118/2212 5000 RA BR
No reported NOTAMs for that airfield.
2 SIGMETs reported for the Milano FIR (LIMM) :
 
Severe turbulence
LIMM SIGMET 7 VALID 212215/220215 LIIP
LIMM MILANO FIR SEV TURB FCST W OF LINE N4711 E01135 - N4312 E00846 FL240/360 STNR NC=
Severe turbulence
LIMM SIGMET 6 VALID 211815/212215 LIIP
LIMM MILANO FIR SEV TURB FCST NW OF LINE N4706 E01136 - N4343 E00721 FL240/360 STNR NC=



MET'MAP, your aeronautical weather chart ! - Copyright ORBIFLY December 2007 - Disclaimer

ORBIFLY MET'MAP TEAM :

Programming & Development : Alexandra Zaïnal
Concept & Development : Baudouin d'Aumeries
Co-Development & Prog : Marc-Olivier Méhu
Technical & hardware support : Manuel Goepfert

Contact : metmap@orbifly.com




SOURCES & CREDITS :

   NOAA